createdAt,value
2022-10-16T00:01:56.311Z,52.60
2022-10-16T00:06:59.030Z,52.44
2022-10-16T00:12:04.878Z,52.55
2022-10-16T00:17:07.554Z,52.63
2022-10-16T00:22:10.309Z,52.73
2022-10-16T00:27:14.361Z,52.71
2022-10-16T00:32:17.000Z,52.74
2022-10-16T00:37:19.665Z,52.89
2022-10-16T00:42:23.905Z,52.83
2022-10-16T00:47:28.651Z,52.76
2022-10-16T00:52:31.536Z,53.00
2022-10-16T00:57:35.601Z,52.84
2022-10-16T01:02:38.267Z,52.71
2022-10-16T01:07:45.511Z,52.99
2022-10-16T01:12:52.198Z,53.04
2022-10-16T01:17:57.299Z,52.81
2022-10-16T01:23:10.133Z,52.80
2022-10-16T01:28:14.264Z,52.93
2022-10-16T01:33:18.709Z,52.96
2022-10-16T01:38:22.789Z,52.89
2022-10-16T01:43:28.896Z,52.85
2022-10-16T01:48:31.820Z,52.86
2022-10-16T01:53:34.492Z,53.05
2022-10-16T01:58:40.147Z,52.89
2022-10-16T02:03:43.044Z,52.99
2022-10-16T02:08:45.989Z,52.95
2022-10-16T02:13:51.867Z,52.92
2022-10-16T02:18:54.532Z,53.17
2022-10-16T02:23:59.765Z,52.98
2022-10-16T02:29:06.437Z,53.17
2022-10-16T02:34:09.287Z,53.01
2022-10-16T02:39:11.981Z,52.86
2022-10-16T02:44:16.178Z,52.98
2022-10-16T02:49:19.726Z,52.85
2022-10-16T02:54:22.614Z,53.06
2022-10-16T02:59:26.722Z,53.16
2022-10-16T03:04:29.444Z,53.20
2022-10-16T03:09:32.459Z,53.01
2022-10-16T03:14:36.449Z,53.14
2022-10-16T03:19:39.415Z,53.00
2022-10-16T03:24:42.095Z,53.12
2022-10-16T03:29:46.260Z,53.06
2022-10-16T03:34:48.940Z,53.24
2022-10-16T03:39:51.600Z,53.26
2022-10-16T03:44:55.687Z,53.23
2022-10-16T03:49:58.631Z,53.12
2022-10-16T03:55:01.634Z,53.28
2022-10-16T04:00:06.531Z,53.19
2022-10-16T04:05:14.781Z,53.30
2022-10-16T04:10:17.822Z,53.39
2022-10-16T04:15:22.016Z,53.39
2022-10-16T04:20:24.951Z,53.46
2022-10-16T04:25:27.619Z,53.46
2022-10-16T04:30:31.832Z,53.12
2022-10-16T04:35:34.549Z,53.36
2022-10-16T04:40:40.905Z,53.26
2022-10-16T04:45:44.930Z,53.58
2022-10-16T04:50:51.716Z,53.27
2022-10-16T04:55:58.206Z,53.60
2022-10-16T05:01:02.422Z,53.52
2022-10-16T05:06:07.295Z,53.66
2022-10-16T05:11:10.223Z,53.60
2022-10-16T05:16:14.420Z,53.51
2022-10-16T05:21:17.128Z,53.44
2022-10-16T05:26:19.756Z,53.69
2022-10-16T05:31:23.753Z,53.40
2022-10-16T05:36:26.787Z,53.59
2022-10-16T05:41:29.469Z,53.48
2022-10-16T05:46:33.714Z,53.72
2022-10-16T05:51:36.447Z,53.59
2022-10-16T05:56:39.369Z,53.57
2022-10-16T06:01:43.465Z,53.61
2022-10-16T06:06:46.118Z,53.69
2022-10-16T06:11:48.781Z,53.45
2022-10-16T06:16:52.849Z,53.54
2022-10-16T06:21:55.664Z,53.59
2022-10-16T06:26:58.457Z,53.63
2022-10-16T06:32:02.653Z,53.68
2022-10-16T06:37:05.448Z,53.56
2022-10-16T06:42:08.113Z,53.59
2022-10-16T06:47:13.680Z,53.67
2022-10-16T06:52:16.906Z,53.67
2022-10-16T06:57:19.765Z,53.58
2022-10-16T07:02:23.943Z,53.73
2022-10-16T07:07:27.608Z,53.55
2022-10-16T07:12:30.326Z,52.26
2022-10-16T07:17:34.770Z,51.70
2022-10-16T07:22:37.681Z,52.17
2022-10-16T07:27:40.694Z,52.54
2022-10-16T07:32:44.746Z,52.04
2022-10-16T07:37:47.612Z,52.57
2022-10-16T07:42:50.275Z,51.72
2022-10-16T07:47:54.265Z,51.69
2022-10-16T07:52:57.174Z,52.16
2022-10-16T07:57:59.797Z,51.66
2022-10-16T08:03:03.813Z,51.74
2022-10-16T08:08:06.517Z,51.63
2022-10-16T08:13:09.279Z,51.86
2022-10-16T08:18:13.685Z,51.82
2022-10-16T08:23:16.531Z,51.91
2022-10-16T08:28:19.322Z,51.82
2022-10-16T08:33:23.392Z,51.77
2022-10-16T08:38:26.061Z,51.72
2022-10-16T08:43:38.143Z,51.79
2022-10-16T08:48:45.579Z,51.80
2022-10-16T08:53:51.185Z,51.84
2022-10-16T08:58:57.956Z,51.83
2022-10-16T09:04:36.058Z,51.76
2022-10-16T09:09:47.169Z,51.80
2022-10-16T09:14:55.510Z,51.74
2022-10-16T09:20:12.560Z,51.73
2022-10-16T09:25:16.715Z,51.66
2022-10-16T09:30:20.570Z,51.82
2022-10-16T09:35:28.827Z,51.77
2022-10-16T09:40:32.815Z,51.81
2022-10-16T09:45:35.717Z,51.82
2022-10-16T09:50:39.752Z,51.78
2022-10-16T09:55:51.908Z,51.86
2022-10-16T10:00:55.221Z,51.63
2022-10-16T10:06:01.988Z,51.85
2022-10-16T10:11:05.739Z,51.72
2022-10-16T10:16:08.403Z,51.91
2022-10-16T10:21:15.920Z,52.00
2022-10-16T10:26:19.968Z,51.94
2022-10-16T10:31:24.268Z,52.10
2022-10-16T10:36:31.330Z,52.28
2022-10-16T10:42:12.610Z,52.37
2022-10-16T10:47:18.698Z,53.02
2022-10-16T10:52:37.861Z,53.17
2022-10-16T10:57:43.632Z,53.41
2022-10-16T11:02:49.349Z,52.86
2022-10-16T11:07:54.768Z,52.80
2022-10-16T11:12:59.259Z,52.82
2022-10-16T11:18:05.166Z,52.81
2022-10-16T11:23:12.168Z,52.80
2022-10-16T11:28:16.421Z,53.01
2022-10-16T11:33:32.299Z,52.94
2022-10-16T11:38:37.190Z,52.82
2022-10-16T11:43:40.727Z,52.80
2022-10-16T11:48:45.233Z,52.73
2022-10-16T11:53:53.047Z,52.87
2022-10-16T11:58:58.700Z,52.95
2022-10-16T12:04:16.114Z,53.08
2022-10-16T12:09:23.010Z,53.06
2022-10-16T12:14:57.308Z,53.47
2022-10-16T12:20:01.710Z,53.77
2022-10-16T12:25:06.885Z,53.85
2022-10-16T12:30:17.038Z,53.75
2022-10-16T12:35:21.891Z,53.76
2022-10-16T12:40:30.609Z,53.71
2022-10-16T12:45:34.586Z,53.80
2022-10-16T12:50:38.470Z,53.78
2022-10-16T12:55:48.707Z,53.95
2022-10-16T13:00:55.471Z,53.98
2022-10-16T13:06:05.552Z,53.98
2022-10-16T13:11:12.510Z,54.10
2022-10-16T13:16:19.394Z,54.64
2022-10-16T13:21:33.275Z,54.95
2022-10-16T13:26:41.129Z,54.26
2022-10-16T13:31:44.505Z,54.28
2022-10-16T13:36:48.315Z,54.21
2022-10-16T13:42:06.259Z,54.33
2022-10-16T13:47:18.759Z,54.22
2022-10-16T13:52:22.381Z,54.50
2022-10-16T13:57:27.726Z,54.70
2022-10-16T14:02:33.212Z,54.70
2022-10-16T14:07:35.904Z,54.81
2022-10-16T14:12:40.065Z,54.82
2022-10-16T14:17:45.792Z,54.75
2022-10-16T14:22:48.794Z,54.80
2022-10-16T14:33:21.445Z,54.85
2022-10-16T14:38:24.211Z,54.81
2022-10-16T14:43:33.619Z,54.85
2022-10-16T14:48:36.350Z,54.94
2022-10-16T14:53:39.099Z,54.91
2022-10-16T14:58:43.351Z,55.07
2022-10-16T15:03:46.211Z,54.85
2022-10-16T15:08:49.101Z,54.98
2022-10-16T15:13:53.162Z,54.88
2022-10-16T15:18:56.004Z,54.67
2022-10-16T15:23:59.224Z,54.96
2022-10-16T15:29:03.269Z,55.26
2022-10-16T15:34:06.950Z,55.20
2022-10-16T15:39:14.169Z,55.31
2022-10-16T15:44:18.233Z,55.67
2022-10-16T15:49:20.939Z,55.25
2022-10-16T15:54:23.824Z,55.26
2022-10-16T15:59:27.852Z,55.06
2022-10-16T16:04:43.522Z,54.90
2022-10-16T16:09:47.108Z,54.91
2022-10-16T16:14:52.184Z,54.72
2022-10-16T16:19:55.102Z,54.85
2022-10-16T16:24:57.834Z,54.84
2022-10-16T16:30:02.032Z,54.97
2022-10-16T16:35:05.605Z,54.87
2022-10-16T16:40:08.828Z,55.22
2022-10-16T16:45:12.863Z,54.87
2022-10-16T16:50:15.677Z,55.05
2022-10-16T16:55:18.347Z,55.06
2022-10-16T17:00:22.329Z,54.90
2022-10-16T17:05:25.093Z,54.78
2022-10-16T17:10:27.759Z,54.86
2022-10-16T17:15:31.811Z,54.56
2022-10-16T17:20:37.698Z,54.56
2022-10-16T17:25:40.471Z,54.60
2022-10-16T17:30:44.497Z,54.49
2022-10-16T17:35:47.765Z,54.51
2022-10-16T17:40:50.524Z,54.43
2022-10-16T17:45:54.630Z,54.22
2022-10-16T17:50:59.991Z,54.46
2022-10-16T17:56:06.247Z,54.31
2022-10-16T18:01:16.668Z,54.15
2022-10-16T18:06:22.806Z,54.38
2022-10-16T18:11:26.186Z,53.87
2022-10-16T18:16:30.731Z,53.80
2022-10-16T18:21:33.475Z,54.03
2022-10-16T18:26:36.156Z,54.51
2022-10-16T18:31:42.692Z,54.69
2022-10-16T18:36:45.754Z,54.59
2022-10-16T18:41:59.428Z,54.51
2022-10-16T18:47:03.466Z,54.57
2022-10-16T18:52:06.420Z,54.49
2022-10-16T18:57:09.116Z,54.46
2022-10-16T19:02:13.621Z,54.36
2022-10-16T19:07:17.119Z,54.47
2022-10-16T19:12:19.777Z,54.49
2022-10-16T19:17:23.830Z,54.55
2022-10-16T19:22:40.792Z,54.49
2022-10-16T19:27:43.515Z,54.50
2022-10-16T19:32:49.451Z,54.55
2022-10-16T19:37:52.412Z,54.40
2022-10-16T19:42:55.143Z,54.63
2022-10-16T19:47:59.153Z,54.54
2022-10-16T19:53:01.881Z,54.56
2022-10-16T19:58:04.535Z,54.47
2022-10-16T20:03:08.569Z,54.63
2022-10-16T20:08:11.334Z,54.51
2022-10-16T20:13:14.001Z,54.45
2022-10-16T20:18:18.253Z,54.37
2022-10-16T20:23:20.970Z,54.31
2022-10-16T20:28:23.756Z,54.51
2022-10-16T20:33:27.906Z,54.34
2022-10-16T20:38:30.925Z,54.35
2022-10-16T20:43:33.693Z,54.48
2022-10-16T20:48:41.000Z,54.43
2022-10-16T20:53:43.894Z,54.39
2022-10-16T20:58:46.802Z,54.58
2022-10-16T21:03:54.975Z,54.37
2022-10-16T21:08:59.202Z,54.59
2022-10-16T21:14:02.515Z,54.49
2022-10-16T21:19:06.603Z,54.86
2022-10-16T21:24:12.235Z,54.61
2022-10-16T21:29:17.759Z,54.79
2022-10-16T21:34:21.741Z,54.99
2022-10-16T21:39:24.475Z,54.98
2022-10-16T21:44:27.491Z,54.82
2022-10-16T21:49:31.686Z,54.81
2022-10-16T21:54:34.295Z,54.97
2022-10-16T21:59:36.935Z,55.05
2022-10-16T22:04:40.932Z,55.00
2022-10-16T22:09:43.748Z,55.24
2022-10-16T22:14:46.703Z,55.45
2022-10-16T22:19:51.151Z,55.24
2022-10-16T22:24:53.810Z,55.35
2022-10-16T22:29:56.549Z,55.37
2022-10-16T22:35:00.545Z,55.32
2022-10-16T22:40:03.172Z,55.31
2022-10-16T22:45:06.674Z,55.25
2022-10-16T22:50:10.847Z,55.47
2022-10-16T22:55:13.467Z,55.54
2022-10-16T23:00:17.841Z,55.43
2022-10-16T23:05:21.923Z,55.49
2022-10-16T23:10:29.514Z,55.54
2022-10-16T23:15:32.345Z,55.26
2022-10-16T23:20:36.540Z,55.31
2022-10-16T23:25:44.817Z,55.34
2022-10-16T23:30:47.471Z,55.51
2022-10-16T23:35:51.476Z,55.64
2022-10-16T23:40:54.274Z,55.53
2022-10-16T23:45:57.749Z,55.50
2022-10-16T23:51:01.796Z,55.58
2022-10-16T23:56:04.857Z,55.69
